Abernathy, TX

2:21 PM CST on November 11, 2019 (GMT -0600)
Abernathy Texas | | Change Station
Active Advisory: Wind Advisory

Elev 3638 ft 33.83 °N, 101.85 °W | Updated 4 seconds ago

Overcast
Overcast
27.5 °F
Feels Like 18 °F
N
11
Wind Variable Wind from North
Gusts 24.0 mph

Today
High -- | Low -- °F
--% Chance of Precip.
Yesterday
High -- | Low -- °F
Precip. -- in
Pressure 30.40 in
Visibility 10.0 miles
Clouds Mostly Cloudy 3400 ft
Overcast 4100 ft
Windchill 18 °F
Dew Point 17 °F
Humidity 63%
Rainfall 0.00 in
Snow Depth Not available.
7:15 AM 5:46 PM
Waxing Gibbous, 99% visible
METAR KLBB 111953Z 01021G32KT 10SM BKN034 OVC041 M02/M09 A3040 RMK AO2 PK WND 01033/1905 SLP295 T10221089
Pressure 30.40 in
Visibility 10.0 miles
Clouds Mostly Cloudy 3400 ft
Overcast 4100 ft
Windchill 18 °F
Dew Point 17 °F
Humidity 63%
Rainfall 0.00 in
Snow Depth Not available.
7:15 AM 5:46 PM
Waxing Gibbous, 99% visible
METAR KLBB 111953Z 01021G32KT 10SM BKN034 OVC041 M02/M09 A3040 RMK AO2 PK WND 01033/1905 SLP295 T10221089

Get Your Daily Forecast Email!

Thanks for signing up!

Be on the lookout for a verification email in your inbox.

You'll start receiving severe weather alerts in your inbox..

×

10-Day Weather Forecast

Almanac

Astronomy

Nov. 11, 2019 Rise Set
Actual Time
Civil Twilight
Nautical Twilight
Astronomical Twilight
Moon
Length of Visible Light
Length of Day
Tomorrow will be .
, % of the Moon is Illuminated

Today's Extremes

State Highs State Lows

Community

WunderPhotos

Category 6

Welcome to Category 6. This is the collective home for Weather Underground's featured writeups by Dr. Jeff Masters (right), Bob Henson (left), Chris Burt, and other regular contributors.

Nearby

Air Quality

  Air Quality AQ Index Pollutant
Not available.

Snow Depth

Station Depth Elevation

Earthquake Activity

City Distance Mag. Time & Date
Minimum magnitude displayed is 2.5.

Coastal Water Temperatures

Place Temperature

Stations

Nearby Weather Stations

Station Location Temp. Windchill Dew Point Humidity Wind Precip. Elev Updated Type
                   

Watches & Warnings

Wind Advisory
Issued: 11:45 AM CST Nov. 11, 2019 – National Weather Service

... Wind Advisory remains in effect until 3 PM CST this
afternoon...

* what... north winds 25 to 35 mph with gusts up to 50 mph.

* Where... the South Plains, rolling plains and southern Texas
Panhandle.

* When... until 3 PM CST this afternoon.

* Impacts... gusty winds will blow around unsecured objects. Tree
limbs could be blown down and a few power outages may result.

Precautionary/preparedness actions...

Use extra caution when driving, especially if operating a high
profile vehicle. Secure outdoor objects.